CLASSIFICA

TROFEO CASA MIDI

DIVISIONI:
BATTERIA1     BATTERIA2     CLASSIFICA:   ASSOLUTA   
CATEGORIE:   TUTTE    |   DB   |   DEB   |   GENT1   |   GENT2   |   SGA   |   SGB  
FILTRO:
  Atleta      Team        Pulisci       Atleti classificati BATTERIA1: 34  

Cliccare sulle colonne per cambiare ordinamento Pagina:   | 1 |
Azioni Pos. M/F Cat. P.Cat. Pett Naz Atleta Squadra Tempo Distacco MEDIA
11GENT21147MUSCI FRANCESCOASD TEAM MMBIKE ANDRIA01:15:20,886 41,81 Km/h
22GENT11205GIORNETTA ANGELOASDILETTANTISTICA DAUNIA CYCLING01:15:23,808+00:03 41,78 Km/h
33SGB1165MOSCARELLI MICHELEASD TEAM FIERAMOSCA01:16:12,004+00:52 41,34 Km/h
44GENT12155LOSACCO ANTONIOASD VELO SPORT MODUGNO MAGALETTI RACING BIKE01:16:12,518+00:52 41,33 Km/h
55GENT13159DE GENNARO LUIGIUS INTERNAPLES MILANO SPORT01:16:12,754+00:52 41,33 Km/h
66SGA1125GIANNUZZI GIUSEPPEASD EURONIX TEAM01:16:17,803+00:57 41,29 Km/h
77SGA2141CARDILLO GIOVANNIASD PROGIT SPORT SAN SEVERO01:16:18,099+00:58 41,28 Km/h
88GENT14197DE MARZO VITOUPJTARANTO01:16:18,697+00:58 41,28 Km/h
99GENT22123APRILE VINCENZOASD FREE BIKE TEAM01:16:18,920+00:58 41,28 Km/h
1010GENT15111CAMPANALE RICCARDOASD TEAM FIERAMOSCA01:16:19,184+00:59 41,27 Km/h
1111GENT16117CORTELLINO GIUSEPPEASD TEAM FIERAMOSCA01:16:19,191+00:59 41,27 Km/h
1212GENT23253BENIZIO RAFFAELETEAM AMICI DI SIMONE01:16:19,399+00:59 41,27 Km/h
1313GENT17143DE TULLIO GIOVANNIASD VELO SPORT MODUGNO MAGALETTI RACING BIKE01:16:19,404+00:59 41,27 Km/h
1414GENT24201OZIMO ANTONIOVELO CLUB SUPERMERCATI LA PRIMA STORNARA01:16:19,525+00:59 41,27 Km/h
1515GENT18207REALE CARLOUPJTARANTO01:16:19,611+00:59 41,27 Km/h
1616SGA3107CARDILLO MARIOSPORT SAN SEVERO01:16:19,863+00:59 41,27 Km/h
1717GENT19157ZIZZARI GIUSEPPEASD VELO SPORT MODUGNO MAGALETTI RACING BIKE01:16:20,193+01:00 41,26 Km/h
1818DEB1163CALABRESE DAVIDEUPJTARANTO01:16:20,278+01:00 41,26 Km/h
1919SGA4167SOLDATO ALFONSOMM BIKE ANDRIA01:16:20,822+01:00 41,26 Km/h
2020GENT25181TANGORRA FRANCESCOASD TEAM ROAD BIKE01:16:21,099+01:01 41,26 Km/h
2121SGB2103PISTILLO MARTINOASD PROGIT SPORT SAN SEVERO01:16:21,644+01:01 41,25 Km/h
2222GENT110127CAPOZZO GIACOMOLEONESSA DI PUGLIA ALTAMURA01:16:23,125+01:03 41,24 Km/h
2323GENT26113CATAPANO FABRIZIOASDILETTANTISTICA DAUNIA CYCLING01:21:12,216+05:52 38,79 Km/h
241DB1215PIERRI FLAVIAASD GRUPPO CICLISTICO AIRONE01:21:23,535+06:03 38,70 Km/h
2524DEB2185FANFULLA PAOLOASD CICLO SPORT MODUGNO01:24:14,579+08:54 37,39 Km/h
2625GENT111209DI BENEDETTO PASQUALEVELO CLUB SUPERMERCATI LA PRIMA STORNARA01:25:40,250+10:20 36,77 Km/h
2726DEB3133TAMPONE VITO FRANCESCO PIOASD VELO CLUB STORNARAnull+23:44:40 ***
2827GENT112195STRIDI ENZOASD FREE BIKE TEAMnull+23:44:40 ***
2928SGB3144VENEZIANI ANTONIOASD VELO SPORT MODUGNO MAGALETTI RACING BIKEnull+23:44:40 ***
3029SGB4135DEGIRARDIS MODESTOU C CASTELLANESE VITO DALESSANDRO ASDnull+23:44:40 ***
3130SGB5187MARRONE PASQUALEASDILETTANTISTICA MARGHERITA BIKEnull+23:44:40 ***
3231GENT27121CHIETI GIOVAMBATTISTAASD CICOGNA LANOTTE BIKE CERIGNOLAnull+23:44:40 ***
332DB2199DE GEMMIS ROSALINDAASD CICLO SPORT MODUGNOnull+23:44:40 ***
343DB3115FERRON NADIA MARIAASD CICLO SPORT MODUGNOnull+23:44:40 ***
Righe per pagina::     TUTTE    |   30   |   50   |   100   Pagina:   | 1 |